sensor_id;sensor_type;location;lat;lon;timestamp;temperature;humidity
47773;DHT22;33534;51.028;13.716;2024-02-23T16:38:04;18.70;68.40
47773;DHT22;33534;51.028;13.716;2024-02-23T16:40:30;18.70;68.40
47773;DHT22;33534;51.028;13.716;2024-02-23T16:42:56;18.70;68.50
47773;DHT22;33534;51.028;13.716;2024-02-23T16:45:23;18.70;68.50
47773;DHT22;33534;51.028;13.716;2024-02-23T16:47:49;18.70;68.50
47773;DHT22;33534;51.028;13.716;2024-02-23T16:50:15;18.70;68.50
47773;DHT22;33534;51.028;13.716;2024-02-23T16:52:40;18.60;68.50
47773;DHT22;33534;51.028;13.716;2024-02-23T16:55:06;18.70;68.50
47773;DHT22;33534;51.028;13.716;2024-02-23T16:57:33;18.70;68.50
47773;DHT22;33534;51.028;13.716;2024-02-23T16:59:59;18.70;68.50
47773;DHT22;33534;51.028;13.716;2024-02-23T17:02:24;18.70;68.70
47773;DHT22;33534;51.028;13.716;2024-02-23T17:04:50;18.70;68.70
47773;DHT22;33534;51.028;13.716;2024-02-23T17:07:16;18.60;68.80
47773;DHT22;33534;51.028;13.716;2024-02-23T17:09:41;18.60;69.00
47773;DHT22;33534;51.028;13.716;2024-02-23T17:12:09;18.70;69.10
47773;DHT22;33534;51.028;13.716;2024-02-23T17:14:35;18.70;69.20
47773;DHT22;33534;51.028;13.716;2024-02-23T17:17:01;18.70;69.30
47773;DHT22;33534;51.028;13.716;2024-02-23T17:19:27;18.60;69.40
47773;DHT22;33534;51.028;13.716;2024-02-23T17:21:52;18.70;69.60
47773;DHT22;33534;51.028;13.716;2024-02-23T17:24:18;18.70;69.90
47773;DHT22;33534;51.028;13.716;2024-02-23T17:26:43;18.70;70.20
47773;DHT22;33534;51.028;13.716;2024-02-23T17:29:09;18.70;70.60
47773;DHT22;33534;51.028;13.716;2024-02-23T17:31:37;18.70;70.80
47773;DHT22;33534;51.028;13.716;2024-02-23T17:34:03;18.70;71.00
47773;DHT22;33534;51.028;13.716;2024-02-23T17:36:28;18.70;71.00
47773;DHT22;33534;51.028;13.716;2024-02-23T17:38:54;18.70;71.20
47773;DHT22;33534;51.028;13.716;2024-02-23T17:41:20;18.70;72.00
47773;DHT22;33534;51.028;13.716;2024-02-23T17:43:46;18.70;73.20
47773;DHT22;33534;51.028;13.716;2024-02-23T17:46:12;18.70;74.00
47773;DHT22;33534;51.028;13.716;2024-02-23T17:48:38;18.70;74.40
47773;DHT22;33534;51.028;13.716;2024-02-23T17:51:04;18.70;74.60
47773;DHT22;33534;51.028;13.716;2024-02-23T17:53:29;18.70;74.60
47773;DHT22;33534;51.028;13.716;2024-02-23T17:55:55;18.70;74.70
47773;DHT22;33534;51.028;13.716;2024-02-23T17:58:25;18.70;74.70
47773;DHT22;33534;51.028;13.716;2024-02-23T18:00:51;18.70;74.70
47773;DHT22;33534;51.028;13.716;2024-02-23T18:03:16;18.80;74.50
47773;DHT22;33534;51.028;13.716;2024-02-23T18:05:45;18.70;74.60
47773;DHT22;33534;51.028;13.716;2024-02-23T18:08:10;18.80;74.60
47773;DHT22;33534;51.028;13.716;2024-02-23T18:10:36;18.70;74.60
47773;DHT22;33534;51.028;13.716;2024-02-23T18:13:04;18.80;75.00
47773;DHT22;33534;51.028;13.716;2024-02-23T18:15:29;18.80;75.20
47773;DHT22;33534;51.028;13.716;2024-02-23T18:17:55;18.80;75.20
47773;DHT22;33534;51.028;13.716;2024-02-23T18:20:21;18.80;75.20
47773;DHT22;33534;51.028;13.716;2024-02-23T18:22:47;18.80;75.10
47773;DHT22;33534;51.028;13.716;2024-02-23T18:25:13;18.80;75.00
47773;DHT22;33534;51.028;13.716;2024-02-23T18:27:40;18.80;74.80
47773;DHT22;33534;51.028;13.716;2024-02-23T18:30:06;18.80;74.40
47773;DHT22;33534;51.028;13.716;2024-02-23T18:32:31;18.80;74.20
47773;DHT22;33534;51.028;13.716;2024-02-23T18:34:57;18.80;74.10
47773;DHT22;33534;51.028;13.716;2024-02-23T18:37:23;18.80;74.30
47773;DHT22;33534;51.028;13.716;2024-02-23T18:39:48;18.80;74.30
47773;DHT22;33534;51.028;13.716;2024-02-23T18:42:14;18.90;74.40
47773;DHT22;33534;51.028;13.716;2024-02-23T18:44:39;18.90;74.40
47773;DHT22;33534;51.028;13.716;2024-02-23T18:47:05;18.90;74.20
47773;DHT22;33534;51.028;13.716;2024-02-23T18:49:31;18.90;74.20
47773;DHT22;33534;51.028;13.716;2024-02-23T18:51:58;18.90;74.20
47773;DHT22;33534;51.028;13.716;2024-02-23T18:54:25;18.90;74.30
47773;DHT22;33534;51.028;13.716;2024-02-23T18:56:50;18.90;74.20
47773;DHT22;33534;51.028;13.716;2024-02-23T18:59:18;18.90;74.40
47773;DHT22;33534;51.028;13.716;2024-02-23T19:01:44;18.90;74.40
47773;DHT22;33534;51.028;13.716;2024-02-23T19:04:11;18.90;74.40
47773;DHT22;33534;51.028;13.716;2024-02-23T19:06:37;18.90;74.30
47773;DHT22;33534;51.028;13.716;2024-02-23T19:09:03;18.90;74.30
47773;DHT22;33534;51.028;13.716;2024-02-23T19:11:30;18.90;74.20
47773;DHT22;33534;51.028;13.716;2024-02-23T19:13:57;18.90;74.10
47773;DHT22;33534;51.028;13.716;2024-02-23T19:16:22;18.90;74.00
47773;DHT22;33534;51.028;13.716;2024-02-23T19:18:49;18.90;74.00
47773;DHT22;33534;51.028;13.716;2024-02-23T19:21:15;18.90;73.90
47773;DHT22;33534;51.028;13.716;2024-02-23T19:23:43;18.90;73.90
47773;DHT22;33534;51.028;13.716;2024-02-23T19:26:10;18.90;73.80
47773;DHT22;33534;51.028;13.716;2024-02-23T19:28:35;18.90;73.80
47773;DHT22;33534;51.028;13.716;2024-02-23T19:31:01;18.80;73.70
47773;DHT22;33534;51.028;13.716;2024-02-23T19:33:27;18.90;73.70
47773;DHT22;33534;51.028;13.716;2024-02-23T19:35:53;18.90;73.60
47773;DHT22;33534;51.028;13.716;2024-02-23T19:38:19;18.80;73.50
47773;DHT22;33534;51.028;13.716;2024-02-23T19:40:45;18.90;73.50
47773;DHT22;33534;51.028;13.716;2024-02-23T19:43:11;18.80;73.40
47773;DHT22;33534;51.028;13.716;2024-02-23T19:45:36;18.90;73.40
47773;DHT22;33534;51.028;13.716;2024-02-23T19:48:02;18.80;73.40
47773;DHT22;33534;51.028;13.716;2024-02-23T19:50:28;18.90;73.40
47773;DHT22;33534;51.028;13.716;2024-02-23T19:52:53;18.90;73.40
47773;DHT22;33534;51.028;13.716;2024-02-23T19:55:19;18.90;73.30
47773;DHT22;33534;51.028;13.716;2024-02-23T19:57:45;18.90;73.30
47773;DHT22;33534;51.028;13.716;2024-02-23T20:00:11;18.90;73.30
47773;DHT22;33534;51.028;13.716;2024-02-23T20:02:37;18.90;73.30
47773;DHT22;33534;51.028;13.716;2024-02-23T20:05:03;18.90;73.30
47773;DHT22;33534;51.028;13.716;2024-02-23T20:07:29;18.80;73.20
47773;DHT22;33534;51.028;13.716;2024-02-23T20:09:55;18.90;73.20
47773;DHT22;33534;51.028;13.716;2024-02-23T20:12:20;18.90;73.20
47773;DHT22;33534;51.028;13.716;2024-02-23T20:14:47;18.90;73.10
47773;DHT22;33534;51.028;13.716;2024-02-23T20:17:14;18.90;73.20
47773;DHT22;33534;51.028;13.716;2024-02-23T20:19:40;18.90;73.10
47773;DHT22;33534;51.028;13.716;2024-02-23T20:22:06;18.90;73.10
47773;DHT22;33534;51.028;13.716;2024-02-23T20:24:32;18.90;73.10
47773;DHT22;33534;51.028;13.716;2024-02-23T20:26:57;18.80;73.10
47773;DHT22;33534;51.028;13.716;2024-02-23T20:29:25;18.80;73.00
47773;DHT22;33534;51.028;13.716;2024-02-23T20:31:51;18.80;73.10
47773;DHT22;33534;51.028;13.716;2024-02-23T20:34:17;18.90;73.10
47773;DHT22;33534;51.028;13.716;2024-02-23T20:36:43;18.90;73.00
47773;DHT22;33534;51.028;13.716;2024-02-23T20:39:09;18.90;73.00
47773;DHT22;33534;51.028;13.716;2024-02-23T20:41:36;18.80;73.00
47773;DHT22;33534;51.028;13.716;2024-02-23T20:44:01;18.80;73.00
47773;DHT22;33534;51.028;13.716;2024-02-23T20:46:27;18.80;73.00
47773;DHT22;33534;51.028;13.716;2024-02-23T20:48:53;18.80;73.00
47773;DHT22;33534;51.028;13.716;2024-02-23T20:51:19;18.80;73.00
47773;DHT22;33534;51.028;13.716;2024-02-23T20:53:45;18.80;73.00
47773;DHT22;33534;51.028;13.716;2024-02-23T20:56:13;18.80;73.00
47773;DHT22;33534;51.028;13.716;2024-02-23T20:58:38;18.80;73.00
47773;DHT22;33534;51.028;13.716;2024-02-23T21:01:05;18.80;73.00
47773;DHT22;33534;51.028;13.716;2024-02-23T21:03:36;18.80;73.00
47773;DHT22;33534;51.028;13.716;2024-02-23T21:06:03;18.80;73.00
47773;DHT22;33534;51.028;13.716;2024-02-23T21:08:29;18.80;73.00
47773;DHT22;33534;51.028;13.716;2024-02-23T21:10:54;18.80;73.00
47773;DHT22;33534;51.028;13.716;2024-02-23T21:13:20;18.80;73.00
47773;DHT22;33534;51.028;13.716;2024-02-23T21:15:45;18.80;73.00
47773;DHT22;33534;51.028;13.716;2024-02-23T21:18:11;18.80;73.00
47773;DHT22;33534;51.028;13.716;2024-02-23T21:20:44;18.80;73.00
47773;DHT22;33534;51.028;13.716;2024-02-23T21:23:13;18.80;73.00
47773;DHT22;33534;51.028;13.716;2024-02-23T21:25:39;18.80;72.90
47773;DHT22;33534;51.028;13.716;2024-02-23T21:28:05;18.80;73.20
47773;DHT22;33534;51.028;13.716;2024-02-23T21:30:31;18.80;73.30
47773;DHT22;33534;51.028;13.716;2024-02-23T21:32:57;18.80;73.40
47773;DHT22;33534;51.028;13.716;2024-02-23T21:35:23;18.80;73.40
47773;DHT22;33534;51.028;13.716;2024-02-23T21:37:51;18.80;73.40
47773;DHT22;33534;51.028;13.716;2024-02-23T21:40:16;18.80;73.30
47773;DHT22;33534;51.028;13.716;2024-02-23T21:42:42;18.80;73.30
47773;DHT22;33534;51.028;13.716;2024-02-23T21:45:08;18.80;73.30
47773;DHT22;33534;51.028;13.716;2024-02-23T21:47:34;18.80;73.30
47773;DHT22;33534;51.028;13.716;2024-02-23T21:50:00;18.80;73.30
47773;DHT22;33534;51.028;13.716;2024-02-23T21:52:25;18.80;73.30
47773;DHT22;33534;51.028;13.716;2024-02-23T21:54:51;18.80;73.30
47773;DHT22;33534;51.028;13.716;2024-02-23T21:57:16;18.80;73.30
47773;DHT22;33534;51.028;13.716;2024-02-23T21:59:42;18.80;73.30
47773;DHT22;33534;51.028;13.716;2024-02-23T22:02:08;18.80;73.30
47773;DHT22;33534;51.028;13.716;2024-02-23T22:04:34;18.80;73.30
47773;DHT22;33534;51.028;13.716;2024-02-23T22:07:05;18.70;73.30
47773;DHT22;33534;51.028;13.716;2024-02-23T22:09:30;18.80;73.40
47773;DHT22;33534;51.028;13.716;2024-02-23T22:11:56;18.70;73.30
47773;DHT22;33534;51.028;13.716;2024-02-23T22:14:21;18.80;73.40
47773;DHT22;33534;51.028;13.716;2024-02-23T22:16:47;18.80;73.40
47773;DHT22;33534;51.028;13.716;2024-02-23T22:19:13;18.80;73.40
47773;DHT22;33534;51.028;13.716;2024-02-23T22:21:38;18.70;73.40
47773;DHT22;33534;51.028;13.716;2024-02-23T22:24:04;18.80;73.40
47773;DHT22;33534;51.028;13.716;2024-02-23T22:26:30;18.80;73.30
47773;DHT22;33534;51.028;13.716;2024-02-23T22:28:56;18.80;73.40
47773;DHT22;33534;51.028;13.716;2024-02-23T22:31:22;18.80;73.30
47773;DHT22;33534;51.028;13.716;2024-02-23T22:33:47;18.80;73.30
47773;DHT22;33534;51.028;13.716;2024-02-23T22:36:13;18.80;73.30
47773;DHT22;33534;51.028;13.716;2024-02-23T22:38:39;18.70;73.40
47773;DHT22;33534;51.028;13.716;2024-02-23T22:41:04;18.70;73.30
47773;DHT22;33534;51.028;13.716;2024-02-23T22:43:30;18.70;73.30
47773;DHT22;33534;51.028;13.716;2024-02-23T22:45:55;18.70;73.30
47773;DHT22;33534;51.028;13.716;2024-02-23T22:48:28;18.80;73.30
47773;DHT22;33534;51.028;13.716;2024-02-23T22:50:53;18.80;73.60
47773;DHT22;33534;51.028;13.716;2024-02-23T22:53:19;18.80;73.80
47773;DHT22;33534;51.028;13.716;2024-02-23T22:55:44;18.80;73.90
47773;DHT22;33534;51.028;13.716;2024-02-23T22:58:10;18.80;74.00
47773;DHT22;33534;51.028;13.716;2024-02-23T23:00:36;18.80;74.20
47773;DHT22;33534;51.028;13.716;2024-02-23T23:03:02;18.80;74.20
47773;DHT22;33534;51.028;13.716;2024-02-23T23:05:28;18.80;74.30
47773;DHT22;33534;51.028;13.716;2024-02-23T23:07:54;18.80;74.30
47773;DHT22;33534;51.028;13.716;2024-02-23T23:10:20;18.80;74.40
47773;DHT22;33534;51.028;13.716;2024-02-23T23:12:45;18.90;74.40
47773;DHT22;33534;51.028;13.716;2024-02-23T23:15:11;18.90;74.40
47773;DHT22;33534;51.028;13.716;2024-02-23T23:17:37;18.90;74.50
47773;DHT22;33534;51.028;13.716;2024-02-23T23:20:03;18.90;74.50
47773;DHT22;33534;51.028;13.716;2024-02-23T23:22:31;18.90;74.50
47773;DHT22;33534;51.028;13.716;2024-02-23T23:24:57;18.90;74.50
47773;DHT22;33534;51.028;13.716;2024-02-23T23:27:23;18.90;74.50
47773;DHT22;33534;51.028;13.716;2024-02-23T23:29:48;18.90;74.60
47773;DHT22;33534;51.028;13.716;2024-02-23T23:32:14;18.90;74.70
47773;DHT22;33534;51.028;13.716;2024-02-23T23:34:43;18.90;74.70
47773;DHT22;33534;51.028;13.716;2024-02-23T23:37:08;18.90;74.70
47773;DHT22;33534;51.028;13.716;2024-02-23T23:39:37;18.90;74.70
47773;DHT22;33534;51.028;13.716;2024-02-23T23:42:07;18.90;74.80
47773;DHT22;33534;51.028;13.716;2024-02-23T23:44:33;18.90;74.70
47773;DHT22;33534;51.028;13.716;2024-02-23T23:46:59;19.00;74.80
47773;DHT22;33534;51.028;13.716;2024-02-23T23:49:24;19.00;74.80
47773;DHT22;33534;51.028;13.716;2024-02-23T23:51:50;19.00;74.90
47773;DHT22;33534;51.028;13.716;2024-02-23T23:54:15;19.00;74.90
47773;DHT22;33534;51.028;13.716;2024-02-23T23:56:41;19.00;74.80
47773;DHT22;33534;51.028;13.716;2024-02-23T23:59:06;19.00;74.80
